sensor_id;sensor_type;location;lat;lon;timestamp;pressure;altitude;pressure_sealevel;temperature;humidity
44198;BME280;30157;55.512;37.764;2022-09-09T00:04:09;100715.97;;;4.79;76.86
44198;BME280;30157;55.512;37.764;2022-09-09T00:07:01;100721.19;;;4.82;76.96
44198;BME280;30157;55.512;37.764;2022-09-09T00:09:32;100700.22;;;4.69;77.23
44198;BME280;30157;55.512;37.764;2022-09-09T00:12:41;100710.72;;;4.76;77.34
44198;BME280;30157;55.512;37.764;2022-09-09T00:15:18;100723.63;;;4.77;77.44
44198;BME280;30157;55.512;37.764;2022-09-09T00:17:56;100707.03;;;4.67;77.32
44198;BME280;30157;55.512;37.764;2022-09-09T00:20:35;100701.47;;;4.55;77.50
44198;BME280;30157;55.512;37.764;2022-09-09T00:23:37;100723.59;;;4.76;77.65
44198;BME280;30157;55.512;37.764;2022-09-09T00:31:28;100718.41;;;4.74;77.65
44198;BME280;30157;55.512;37.764;2022-09-09T00:34:00;100696.53;;;4.61;77.74
44198;BME280;30157;55.512;37.764;2022-09-09T00:36:31;100694.59;;;4.54;77.74
44198;BME280;30157;55.512;37.764;2022-09-09T00:39:00;100726.94;;;4.73;77.82
44198;BME280;30157;55.512;37.764;2022-09-09T00:43:57;100732.84;;;4.70;78.13
44198;BME280;30157;55.512;37.764;2022-09-09T00:52:30;100655.78;;;4.22;78.36
44198;BME280;30157;55.512;37.764;2022-09-09T00:57:36;100740.28;;;4.63;78.55
44198;BME280;30157;55.512;37.764;2022-09-09T01:08:18;100747.50;;;4.73;79.40
44198;BME280;30157;55.512;37.764;2022-09-09T01:10:52;100749.41;;;4.79;79.16
44198;BME280;30157;55.512;37.764;2022-09-09T01:13:28;100729.41;;;4.70;79.23
44198;BME280;30157;55.512;37.764;2022-09-09T01:16:04;100686.69;;;4.49;79.31
44198;BME280;30157;55.512;37.764;2022-09-09T01:18:44;100716.47;;;4.68;79.26
44198;BME280;30157;55.512;37.764;2022-09-09T01:21:23;100752.38;;;4.91;79.77
44198;BME280;30157;55.512;37.764;2022-09-09T01:26:48;100700.75;;;4.59;79.52
44198;BME280;30157;55.512;37.764;2022-09-09T01:29:24;100759.19;;;4.89;79.41
44198;BME280;30157;55.512;37.764;2022-09-09T01:31:57;100765.13;;;4.88;79.18
44198;BME280;30157;55.512;37.764;2022-09-09T01:34:29;100724.72;;;4.58;79.30
44198;BME280;30157;55.512;37.764;2022-09-09T01:37:02;100749.75;;;4.64;79.58
44198;BME280;30157;55.512;37.764;2022-09-09T01:39:32;100763.06;;;4.52;79.94
44198;BME280;30157;55.512;37.764;2022-09-09T01:42:08;100768.81;;;4.45;80.29
44198;BME280;30157;55.512;37.764;2022-09-09T01:44:36;100774.06;;;4.48;80.66
44198;BME280;30157;55.512;37.764;2022-09-09T01:47:03;100773.00;;;4.43;81.05
44198;BME280;30157;55.512;37.764;2022-09-09T01:49:29;100709.06;;;4.02;80.78
44198;BME280;30157;55.512;37.764;2022-09-09T01:51:56;100723.94;;;4.11;80.96
44198;BME280;30157;55.512;37.764;2022-09-09T01:54:31;100774.66;;;4.41;80.87
44198;BME280;30157;55.512;37.764;2022-09-09T01:57:11;100782.16;;;4.34;81.10
44198;BME280;30157;55.512;37.764;2022-09-09T02:02:48;100790.56;;;4.30;81.57
44198;BME280;30157;55.512;37.764;2022-09-09T02:07:52;100781.88;;;4.27;81.46
44198;BME280;30157;55.512;37.764;2022-09-09T02:10:45;100772.47;;;4.27;81.60
44198;BME280;30157;55.512;37.764;2022-09-09T02:13:23;100792.94;;;4.48;81.58
44198;BME280;30157;55.512;37.764;2022-09-09T02:15:59;100794.84;;;4.54;81.24
44198;BME280;30157;55.512;37.764;2022-09-09T02:18:40;100778.47;;;4.52;81.01
44198;BME280;30157;55.512;37.764;2022-09-09T02:21:12;100777.56;;;4.50;81.02
44198;BME280;30157;55.512;37.764;2022-09-09T02:23:41;100787.47;;;4.63;80.90
44198;BME280;30157;55.512;37.764;2022-09-09T02:26:12;100782.16;;;4.59;80.84
44198;BME280;30157;55.512;37.764;2022-09-09T02:28:41;100798.00;;;4.71;80.74
44198;BME280;30157;55.512;37.764;2022-09-09T02:31:08;100787.59;;;4.68;80.48
44198;BME280;30157;55.512;37.764;2022-09-09T02:33:45;100805.06;;;4.77;80.33
44198;BME280;30157;55.512;37.764;2022-09-09T02:36:15;100786.25;;;4.53;79.91
44198;BME280;30157;55.512;37.764;2022-09-09T02:38:47;100786.81;;;4.45;80.29
44198;BME280;30157;55.512;37.764;2022-09-09T02:41:34;100801.28;;;4.43;80.58
44198;BME280;30157;55.512;37.764;2022-09-09T02:44:02;100808.66;;;4.33;80.61
44198;BME280;30157;55.512;37.764;2022-09-09T02:49:28;100804.69;;;4.17;80.88
44198;BME280;30157;55.512;37.764;2022-09-09T02:52:06;100820.16;;;4.19;80.82
44198;BME280;30157;55.512;37.764;2022-09-09T02:54:38;100809.19;;;4.00;81.14
44198;BME280;30157;55.512;37.764;2022-09-09T02:59:38;100784.50;;;3.81;81.13
44198;BME280;30157;55.512;37.764;2022-09-09T03:02:04;100813.47;;;4.00;81.40
44198;BME280;30157;55.512;37.764;2022-09-09T03:04:31;100768.50;;;3.66;81.78
44198;BME280;30157;55.512;37.764;2022-09-09T03:06:58;100821.16;;;4.00;81.79
44198;BME280;30157;55.512;37.764;2022-09-09T03:09:24;100838.50;;;4.06;81.79
44198;BME280;30157;55.512;37.764;2022-09-09T03:11:52;100837.69;;;4.07;81.74
44198;BME280;30157;55.512;37.764;2022-09-09T03:14:19;100846.31;;;4.09;81.75
44198;BME280;30157;55.512;37.764;2022-09-09T03:16:47;100831.66;;;4.06;81.95
44198;BME280;30157;55.512;37.764;2022-09-09T03:19:14;100815.13;;;3.99;81.50
44198;BME280;30157;55.512;37.764;2022-09-09T03:21:43;100838.72;;;4.12;81.56
44198;BME280;30157;55.512;37.764;2022-09-09T03:24:08;100791.50;;;3.85;81.43
44198;BME280;30157;55.512;37.764;2022-09-09T03:26:35;100840.81;;;4.22;81.62
44198;BME280;30157;55.512;37.764;2022-09-09T03:29:01;100833.38;;;4.52;81.51
44198;BME280;30157;55.512;37.764;2022-09-09T03:31:29;100830.28;;;5.13;81.22
44198;BME280;30157;55.512;37.764;2022-09-09T03:33:57;100810.38;;;5.34;80.55
44198;BME280;30157;55.512;37.764;2022-09-09T03:36:25;100858.28;;;5.55;80.00
44198;BME280;30157;55.512;37.764;2022-09-09T03:38:52;100845.38;;;5.82;79.68
44198;BME280;30157;55.512;37.764;2022-09-09T03:41:27;100851.53;;;6.44;78.73
44198;BME280;30157;55.512;37.764;2022-09-09T03:43:53;100833.50;;;7.09;77.65
44198;BME280;30157;55.512;37.764;2022-09-09T03:46:22;100806.28;;;7.59;75.94
44198;BME280;30157;55.512;37.764;2022-09-09T03:48:51;100822.75;;;7.62;74.54
44198;BME280;30157;55.512;37.764;2022-09-09T03:51:20;100861.19;;;7.86;71.87
44198;BME280;30157;55.512;37.764;2022-09-09T03:53:47;100865.31;;;8.18;70.32
44198;BME280;30157;55.512;37.764;2022-09-09T03:56:15;100856.81;;;8.63;69.73
44198;BME280;30157;55.512;37.764;2022-09-09T03:58:41;100773.88;;;8.57;67.95
44198;BME280;30157;55.512;37.764;2022-09-09T04:01:12;100859.09;;;9.43;67.53
44198;BME280;30157;55.512;37.764;2022-09-09T04:03:51;100860.63;;;9.85;65.14
44198;BME280;30157;55.512;37.764;2022-09-09T04:06:20;100832.91;;;9.82;65.27
44198;BME280;30157;55.512;37.764;2022-09-09T04:08:48;100859.75;;;10.47;64.07
44198;BME280;30157;55.512;37.764;2022-09-09T04:11:18;100848.78;;;10.71;61.81
44198;BME280;30157;55.512;37.764;2022-09-09T04:13:47;100866.44;;;11.06;62.07
44198;BME280;30157;55.512;37.764;2022-09-09T04:16:14;100853.63;;;11.23;60.52
44198;BME280;30157;55.512;37.764;2022-09-09T04:18:41;100839.06;;;11.44;59.32
44198;BME280;30157;55.512;37.764;2022-09-09T04:21:08;100876.66;;;11.88;59.00
44198;BME280;30157;55.512;37.764;2022-09-09T04:23:35;100877.78;;;12.25;58.25
44198;BME280;30157;55.512;37.764;2022-09-09T04:26:02;100813.56;;;12.20;56.20
44198;BME280;30157;55.512;37.764;2022-09-09T04:28:33;100873.66;;;12.75;54.05
44198;BME280;30157;55.512;37.764;2022-09-09T04:31:11;100825.81;;;12.52;52.98
44198;BME280;30157;55.512;37.764;2022-09-09T04:33:40;100876.25;;;12.74;52.97
44198;BME280;30157;55.512;37.764;2022-09-09T04:36:06;100875.41;;;12.83;53.24
44198;BME280;30157;55.512;37.764;2022-09-09T04:38:32;100804.19;;;12.68;52.41
44198;BME280;30157;55.512;37.764;2022-09-09T04:40:58;100837.25;;;13.03;51.61
44198;BME280;30157;55.512;37.764;2022-09-09T04:43:24;100871.19;;;13.42;50.70
44198;BME280;30157;55.512;37.764;2022-09-09T04:45:53;100872.03;;;13.58;50.37
44198;BME280;30157;55.512;37.764;2022-09-09T04:48:22;100870.31;;;13.80;49.70
44198;BME280;30157;55.512;37.764;2022-09-09T04:51:04;100884.97;;;14.23;49.07
44198;BME280;30157;55.512;37.764;2022-09-09T04:53:31;100873.63;;;14.42;48.39
44198;BME280;30157;55.512;37.764;2022-09-09T04:56:12;100878.75;;;14.66;47.96
44198;BME280;30157;55.512;37.764;2022-09-09T04:58:51;100890.81;;;14.96;47.40
44198;BME280;30157;55.512;37.764;2022-09-09T05:01:19;100880.16;;;15.24;46.12
44198;BME280;30157;55.512;37.764;2022-09-09T05:03:48;100874.88;;;15.30;45.48
44198;BME280;30157;55.512;37.764;2022-09-09T05:06:20;100886.06;;;15.52;44.79
44198;BME280;30157;55.512;37.764;2022-09-09T05:08:48;100897.19;;;15.82;45.11
44198;BME280;30157;55.512;37.764;2022-09-09T05:13:51;100831.63;;;15.93;42.48
44198;BME280;30157;55.512;37.764;2022-09-09T05:16:18;100900.25;;;16.23;42.48
44198;BME280;30157;55.512;37.764;2022-09-09T05:18:44;100838.59;;;15.94;42.67
44198;BME280;30157;55.512;37.764;2022-09-09T05:21:13;100886.88;;;16.46;41.71
44198;BME280;30157;55.512;37.764;2022-09-09T05:23:40;100846.91;;;16.30;41.69
44198;BME280;30157;55.512;37.764;2022-09-09T05:26:08;100903.06;;;16.79;41.25
44198;BME280;30157;55.512;37.764;2022-09-09T05:28:35;100901.00;;;17.04;40.65
44198;BME280;30157;55.512;37.764;2022-09-09T05:31:08;100901.78;;;17.12;39.75
44198;BME280;30157;55.512;37.764;2022-09-09T05:33:40;100847.00;;;16.88;40.03
44198;BME280;30157;55.512;37.764;2022-09-09T05:36:11;100850.13;;;17.15;39.54
44198;BME280;30157;55.512;37.764;2022-09-09T05:38:41;100861.00;;;17.46;39.11
44198;BME280;30157;55.512;37.764;2022-09-09T05:41:17;100889.97;;;17.93;38.56
44198;BME280;30157;55.512;37.764;2022-09-09T05:43:44;100896.50;;;18.19;37.57
44198;BME280;30157;55.512;37.764;2022-09-09T05:46:14;100849.63;;;17.99;37.01
44198;BME280;30157;55.512;37.764;2022-09-09T05:48:42;100844.47;;;17.92;37.56
44198;BME280;30157;55.512;37.764;2022-09-09T05:51:25;100859.56;;;18.26;37.44
44198;BME280;30157;55.512;37.764;2022-09-09T05:53:54;100903.31;;;18.71;36.75
44198;BME280;30157;55.512;37.764;2022-09-09T05:56:29;100897.84;;;18.80;35.93
44198;BME280;30157;55.512;37.764;2022-09-09T05:58:57;100914.66;;;19.16;35.82
44198;BME280;30157;55.512;37.764;2022-09-09T06:03:52;100895.75;;;19.36;35.35
44198;BME280;30157;55.512;37.764;2022-09-09T06:06:23;100894.25;;;19.61;34.85
44198;BME280;30157;55.512;37.764;2022-09-09T06:08:54;100893.03;;;19.75;34.10
44198;BME280;30157;55.512;37.764;2022-09-09T06:11:29;100905.69;;;19.96;33.83
44198;BME280;30157;55.512;37.764;2022-09-09T06:13:59;100917.06;;;20.30;33.52
44198;BME280;30157;55.512;37.764;2022-09-09T06:16:28;100924.75;;;20.06;33.95
44198;BME280;30157;55.512;37.764;2022-09-09T06:18:55;100926.38;;;19.76;33.00
44198;BME280;30157;55.512;37.764;2022-09-09T06:21:26;100929.09;;;19.73;33.05
44198;BME280;30157;55.512;37.764;2022-09-09T06:23:54;100909.31;;;18.78;34.35
44198;BME280;30157;55.512;37.764;2022-09-09T06:26:28;100919.94;;;19.52;33.20
44198;BME280;30157;55.512;37.764;2022-09-09T06:28:59;100914.66;;;20.22;32.09
44198;BME280;30157;55.512;37.764;2022-09-09T06:31:27;100928.16;;;19.39;32.40
44198;BME280;30157;55.512;37.764;2022-09-09T06:33:58;100927.38;;;18.07;34.19
44198;BME280;30157;55.512;37.764;2022-09-09T06:36:29;100925.28;;;19.48;33.14
44198;BME280;30157;55.512;37.764;2022-09-09T06:38:57;100909.38;;;20.54;31.59
44198;BME280;30157;55.512;37.764;2022-09-09T06:41:24;100924.25;;;21.16;30.50
44198;BME280;30157;55.512;37.764;2022-09-09T06:43:52;100926.75;;;22.01;29.56
44198;BME280;30157;55.512;37.764;2022-09-09T06:46:29;100929.75;;;22.42;27.84
44198;BME280;30157;55.512;37.764;2022-09-09T06:48:57;100863.28;;;22.03;26.77
44198;BME280;30157;55.512;37.764;2022-09-09T06:51:34;100935.44;;;22.79;27.14
44198;BME280;30157;55.512;37.764;2022-09-09T06:54:03;100935.72;;;23.19;26.42
44198;BME280;30157;55.512;37.764;2022-09-09T06:56:35;100943.06;;;21.34;28.24
44198;BME280;30157;55.512;37.764;2022-09-09T06:59:07;100945.66;;;20.12;29.07
44198;BME280;30157;55.512;37.764;2022-09-09T07:01:40;100900.53;;;19.20;29.46
44198;BME280;30157;55.512;37.764;2022-09-09T07:04:11;100932.50;;;20.75;28.59
44198;BME280;30157;55.512;37.764;2022-09-09T07:06:45;100939.34;;;21.94;27.08
44198;BME280;30157;55.512;37.764;2022-09-09T07:09:16;100938.56;;;22.67;24.62
44198;BME280;30157;55.512;37.764;2022-09-09T07:11:49;100926.09;;;22.70;24.73
44198;BME280;30157;55.512;37.764;2022-09-09T07:14:20;100941.88;;;22.48;25.58
44198;BME280;30157;55.512;37.764;2022-09-09T07:16:52;100906.69;;;22.70;24.07
44198;BME280;30157;55.512;37.764;2022-09-09T07:19:18;100910.91;;;21.76;24.81
44198;BME280;30157;55.512;37.764;2022-09-09T07:21:46;100897.53;;;21.54;24.69
44198;BME280;30157;55.512;37.764;2022-09-09T07:24:16;100955.41;;;21.33;25.82
44198;BME280;30157;55.512;37.764;2022-09-09T07:26:43;100956.91;;;21.40;25.56
44198;BME280;30157;55.512;37.764;2022-09-09T07:29:11;100955.94;;;19.13;28.34
44198;BME280;30157;55.512;37.764;2022-09-09T07:31:39;100950.13;;;18.54;29.99
44198;BME280;30157;55.512;37.764;2022-09-09T07:34:09;100928.97;;;19.77;28.46
44198;BME280;30157;55.512;37.764;2022-09-09T07:36:37;100911.59;;;19.70;27.88
44198;BME280;30157;55.512;37.764;2022-09-09T07:39:10;100961.66;;;18.92;29.15
44198;BME280;30157;55.512;37.764;2022-09-09T07:41:42;100958.41;;;20.92;27.29
44198;BME280;30157;55.512;37.764;2022-09-09T07:44:13;100969.44;;;22.66;25.69
44198;BME280;30157;55.512;37.764;2022-09-09T07:46:40;100923.50;;;23.37;23.88
44198;BME280;30157;55.512;37.764;2022-09-09T07:49:08;100925.53;;;22.11;24.52
44198;BME280;30157;55.512;37.764;2022-09-09T07:51:37;100973.16;;;20.68;26.60
44198;BME280;30157;55.512;37.764;2022-09-09T07:54:08;100989.06;;;19.60;27.51
44198;BME280;30157;55.512;37.764;2022-09-09T07:56:43;100942.41;;;17.43;30.20
44198;BME280;30157;55.512;37.764;2022-09-09T07:59:12;100989.75;;;16.63;31.68
44198;BME280;30157;55.512;37.764;2022-09-09T08:01:43;100993.94;;;15.91;32.54
44198;BME280;30157;55.512;37.764;2022-09-09T08:04:14;100987.56;;;17.03;31.52
44198;BME280;30157;55.512;37.764;2022-09-09T08:06:47;100984.44;;;16.70;31.76
44198;BME280;30157;55.512;37.764;2022-09-09T08:09:15;100942.25;;;16.13;33.01
44198;BME280;30157;55.512;37.764;2022-09-09T08:11:42;100984.16;;;16.13;32.57
44198;BME280;30157;55.512;37.764;2022-09-09T08:14:11;100974.81;;;15.80;33.67
44198;BME280;30157;55.512;37.764;2022-09-09T08:16:40;100978.16;;;15.98;33.42
44198;BME280;30157;55.512;37.764;2022-09-09T08:19:09;100993.13;;;15.85;33.93
44198;BME280;30157;55.512;37.764;2022-09-09T08:21:37;100999.53;;;15.39;34.39
44198;BME280;30157;55.512;37.764;2022-09-09T08:24:05;100995.34;;;14.99;34.92
44198;BME280;30157;55.512;37.764;2022-09-09T08:26:34;101005.88;;;14.77;35.05
44198;BME280;30157;55.512;37.764;2022-09-09T08:29:02;101007.66;;;14.69;35.20
44198;BME280;30157;55.512;37.764;2022-09-09T08:31:32;101005.00;;;14.82;35.47
44198;BME280;30157;55.512;37.764;2022-09-09T08:34:01;100990.94;;;16.32;33.34
44198;BME280;30157;55.512;37.764;2022-09-09T08:36:32;100984.59;;;18.84;30.00
44198;BME280;30157;55.512;37.764;2022-09-09T08:39:00;100984.25;;;21.11;27.99
44198;BME280;30157;55.512;37.764;2022-09-09T08:53:01;100996.41;;;16.11;32.50
44198;BME280;30157;55.512;37.764;2022-09-09T08:55:53;101005.66;;;16.46;32.07
44198;BME280;30157;55.512;37.764;2022-09-09T08:58:28;101002.00;;;18.44;29.84
44198;BME280;30157;55.512;37.764;2022-09-09T09:06:52;101002.19;;;19.99;26.82
44198;BME280;30157;55.512;37.764;2022-09-09T09:10:28;101008.59;;;21.77;24.80
44198;BME280;30157;55.512;37.764;2022-09-09T09:12:28;100978.56;;;22.32;23.50
44198;BME280;30157;55.512;37.764;2022-09-09T09:14:55;100994.81;;;20.79;25.67
44198;BME280;30157;55.512;37.764;2022-09-09T09:17:25;101015.16;;;19.31;28.10
44198;BME280;30157;55.512;37.764;2022-09-09T09:19:53;100997.44;;;18.07;29.59
44198;BME280;30157;55.512;37.764;2022-09-09T09:22:22;101008.31;;;17.20;30.94
44198;BME280;30157;55.512;37.764;2022-09-09T09:25:16;101018.84;;;16.37;32.26
44198;BME280;30157;55.512;37.764;2022-09-09T09:30:38;101015.91;;;15.67;33.75
44198;BME280;30157;55.512;37.764;2022-09-09T09:33:22;100988.63;;;18.56;29.89
44198;BME280;30157;55.512;37.764;2022-09-09T09:35:50;101009.78;;;20.46;28.21
44198;BME280;30157;55.512;37.764;2022-09-09T09:38:22;101010.47;;;21.74;25.98
44198;BME280;30157;55.512;37.764;2022-09-09T09:40:56;101001.28;;;22.63;25.07
44198;BME280;30157;55.512;37.764;2022-09-09T09:43:29;100992.22;;;22.94;24.36
44198;BME280;30157;55.512;37.764;2022-09-09T09:45:58;100995.06;;;21.60;25.62
44198;BME280;30157;55.512;37.764;2022-09-09T09:48:26;100968.44;;;20.48;26.33
44198;BME280;30157;55.512;37.764;2022-09-09T09:53:25;101020.22;;;19.41;27.78
44198;BME280;30157;55.512;37.764;2022-09-09T09:56:13;101015.88;;;19.77;28.09
44198;BME280;30157;55.512;37.764;2022-09-09T10:01:31;101000.13;;;21.38;26.12
44198;BME280;30157;55.512;37.764;2022-09-09T10:04:16;100997.22;;;21.75;25.38
44198;BME280;30157;55.512;37.764;2022-09-09T10:06:44;101006.88;;;22.03;24.37
44198;BME280;30157;55.512;37.764;2022-09-09T10:09:27;100987.59;;;21.74;24.55
44198;BME280;30157;55.512;37.764;2022-09-09T10:12:10;100996.50;;;21.97;25.13
44198;BME280;30157;55.512;37.764;2022-09-09T10:22:35;101019.59;;;16.49;31.78
44198;BME280;30157;55.512;37.764;2022-09-09T10:30:20;100962.78;;;18.78;29.57
44198;BME280;30157;55.512;37.764;2022-09-09T10:33:09;101021.00;;;19.85;26.95
44198;BME280;30157;55.512;37.764;2022-09-09T10:38:13;101019.28;;;20.19;27.09
44198;BME280;30157;55.512;37.764;2022-09-09T10:41:05;101014.88;;;19.45;27.82
44198;BME280;30157;55.512;37.764;2022-09-09T10:51:54;101027.31;;;17.98;30.21
44198;BME280;30157;55.512;37.764;2022-09-09T10:54:45;101015.81;;;19.01;29.55
44198;BME280;30157;55.512;37.764;2022-09-09T11:00:15;101020.50;;;19.68;27.63
44198;BME280;30157;55.512;37.764;2022-09-09T11:02:42;101025.81;;;19.66;28.04
44198;BME280;30157;55.512;37.764;2022-09-09T11:05:20;101017.41;;;19.09;28.25
44198;BME280;30157;55.512;37.764;2022-09-09T11:07:57;100980.38;;;17.76;29.01
44198;BME280;30157;55.512;37.764;2022-09-09T11:10:48;101008.50;;;17.07;30.42
44198;BME280;30157;55.512;37.764;2022-09-09T11:13:24;101026.22;;;18.61;29.28
44198;BME280;30157;55.512;37.764;2022-09-09T11:15:59;101009.69;;;20.16;27.48
44198;BME280;30157;55.512;37.764;2022-09-09T11:18:29;101009.97;;;21.04;25.56
44198;BME280;30157;55.512;37.764;2022-09-09T11:21:00;101011.84;;;21.29;24.85
44198;BME280;30157;55.512;37.764;2022-09-09T11:23:42;101011.34;;;22.01;24.34
44198;BME280;30157;55.512;37.764;2022-09-09T11:26:16;100966.69;;;20.80;25.03
44198;BME280;30157;55.512;37.764;2022-09-09T11:43:09;101016.75;;;22.50;23.38
44198;BME280;30157;55.512;37.764;2022-09-09T11:45:39;101015.59;;;23.30;22.90
44198;BME280;30157;55.512;37.764;2022-09-09T11:48:23;101024.19;;;24.24;21.81
44198;BME280;30157;55.512;37.764;2022-09-09T11:50:58;101017.16;;;24.23;21.05
44198;BME280;30157;55.512;37.764;2022-09-09T11:53:25;101002.75;;;24.49;20.63
44198;BME280;30157;55.512;37.764;2022-09-09T11:58:31;101009.19;;;25.96;20.07
44198;BME280;30157;55.512;37.764;2022-09-09T12:00:59;101016.09;;;24.06;21.54
44198;BME280;30157;55.512;37.764;2022-09-09T12:06:17;100992.69;;;19.93;25.66
44198;BME280;30157;55.512;37.764;2022-09-09T12:08:49;101018.63;;;18.46;27.70
44198;BME280;30157;55.512;37.764;2022-09-09T12:11:29;101017.06;;;17.79;28.39
44198;BME280;30157;55.512;37.764;2022-09-09T12:13:58;101009.91;;;21.06;24.71
44198;BME280;30157;55.512;37.764;2022-09-09T12:16:34;100957.19;;;22.63;22.29
44198;BME280;30157;55.512;37.764;2022-09-09T12:22:17;101007.41;;;24.44;20.32
44198;BME280;30157;55.512;37.764;2022-09-09T12:27:32;101003.41;;;25.88;19.43
44198;BME280;30157;55.512;37.764;2022-09-09T12:32:26;100988.94;;;26.28;19.26
44198;BME280;30157;55.512;37.764;2022-09-09T12:34:57;100991.72;;;26.60;19.25
44198;BME280;30157;55.512;37.764;2022-09-09T12:37:37;100983.94;;;26.73;18.91
44198;BME280;30157;55.512;37.764;2022-09-09T12:40:06;100990.06;;;26.91;18.56
44198;BME280;30157;55.512;37.764;2022-09-09T12:42:44;100981.97;;;25.37;20.50
44198;BME280;30157;55.512;37.764;2022-09-09T12:45:21;100905.88;;;25.16;20.94
44198;BME280;30157;55.512;37.764;2022-09-09T12:50:22;100990.00;;;24.78;21.15
44198;BME280;30157;55.512;37.764;2022-09-09T12:52:53;101007.38;;;24.03;21.77
44198;BME280;30157;55.512;37.764;2022-09-09T12:55:27;100986.47;;;23.06;22.63
44198;BME280;30157;55.512;37.764;2022-09-09T12:57:57;100993.94;;;23.85;21.89
44198;BME280;30157;55.512;37.764;2022-09-09T13:00:24;100999.56;;;23.99;21.32
44198;BME280;30157;55.512;37.764;2022-09-09T13:02:53;100979.94;;;24.24;20.79
44198;BME280;30157;55.512;37.764;2022-09-09T13:05:25;101005.88;;;24.38;20.91
44198;BME280;30157;55.512;37.764;2022-09-09T13:08:05;101002.56;;;24.33;20.77
44198;BME280;30157;55.512;37.764;2022-09-09T13:10:39;100984.31;;;24.25;20.70
44198;BME280;30157;55.512;37.764;2022-09-09T13:13:15;101002.69;;;24.71;20.98
44198;BME280;30157;55.512;37.764;2022-09-09T13:15:52;100959.19;;;23.93;21.24
44198;BME280;30157;55.512;37.764;2022-09-09T13:18:23;100988.41;;;23.69;21.46
44198;BME280;30157;55.512;37.764;2022-09-09T13:20:52;100949.06;;;21.67;22.85
44198;BME280;30157;55.512;37.764;2022-09-09T13:23:20;101011.72;;;19.69;26.26
44198;BME280;30157;55.512;37.764;2022-09-09T13:25:59;101007.50;;;17.75;28.75
44198;BME280;30157;55.512;37.764;2022-09-09T13:28:28;101006.38;;;16.61;30.52
44198;BME280;30157;55.512;37.764;2022-09-09T13:31:05;101017.44;;;16.02;31.66
44198;BME280;30157;55.512;37.764;2022-09-09T13:33:37;101018.59;;;15.53;32.83
44198;BME280;30157;55.512;37.764;2022-09-09T13:36:08;100987.50;;;15.04;33.70
44198;BME280;30157;55.512;37.764;2022-09-09T13:38:54;101010.22;;;14.89;34.37
44198;BME280;30157;55.512;37.764;2022-09-09T13:41:21;101017.22;;;14.72;34.42
44198;BME280;30157;55.512;37.764;2022-09-09T13:43:49;101008.50;;;14.60;34.65
44198;BME280;30157;55.512;37.764;2022-09-09T13:48:58;100993.75;;;14.45;35.06
44198;BME280;30157;55.512;37.764;2022-09-09T13:51:45;101008.53;;;14.62;35.50
44198;BME280;30157;55.512;37.764;2022-09-09T13:54:14;101014.59;;;14.62;35.38
44198;BME280;30157;55.512;37.764;2022-09-09T13:56:42;101010.25;;;14.60;35.77
44198;BME280;30157;55.512;37.764;2022-09-09T13:59:13;101004.16;;;14.55;35.83
44198;BME280;30157;55.512;37.764;2022-09-09T14:01:39;100947.66;;;14.24;35.54
44198;BME280;30157;55.512;37.764;2022-09-09T14:04:05;100997.22;;;14.41;35.78
44198;BME280;30157;55.512;37.764;2022-09-09T14:06:32;101006.84;;;14.30;35.60
44198;BME280;30157;55.512;37.764;2022-09-09T14:09:03;100977.25;;;13.95;35.30
44198;BME280;30157;55.512;37.764;2022-09-09T14:11:28;100984.22;;;13.86;35.88
44198;BME280;30157;55.512;37.764;2022-09-09T14:13:54;101009.47;;;13.90;35.82
44198;BME280;30157;55.512;37.764;2022-09-09T14:16:21;101014.66;;;13.81;36.22
44198;BME280;30157;55.512;37.764;2022-09-09T14:18:47;101014.66;;;13.73;36.42
44198;BME280;30157;55.512;37.764;2022-09-09T14:21:13;100981.56;;;13.38;36.30
44198;BME280;30157;55.512;37.764;2022-09-09T14:23:41;101010.25;;;13.38;36.86
44198;BME280;30157;55.512;37.764;2022-09-09T14:26:07;101018.88;;;13.35;37.22
44198;BME280;30157;55.512;37.764;2022-09-09T14:28:35;100977.97;;;13.06;37.59
44198;BME280;30157;55.512;37.764;2022-09-09T14:31:02;100990.16;;;13.12;37.70
44198;BME280;30157;55.512;37.764;2022-09-09T14:33:29;101018.00;;;13.24;38.05
44198;BME280;30157;55.512;37.764;2022-09-09T14:36:00;100919.63;;;12.66;38.53
44198;BME280;30157;55.512;37.764;2022-09-09T14:38:32;101003.22;;;13.21;38.55
44198;BME280;30157;55.512;37.764;2022-09-09T14:40:59;101016.25;;;13.26;38.46
44198;BME280;30157;55.512;37.764;2022-09-09T14:43:26;100989.25;;;13.07;39.13
44198;BME280;30157;55.512;37.764;2022-09-09T14:45:53;101010.13;;;13.15;39.10
44198;BME280;30157;55.512;37.764;2022-09-09T14:48:18;101008.38;;;13.14;39.35
44198;BME280;30157;55.512;37.764;2022-09-09T14:50:44;100977.03;;;12.89;39.16
44198;BME280;30157;55.512;37.764;2022-09-09T14:53:10;101009.22;;;13.00;39.40
44198;BME280;30157;55.512;37.764;2022-09-09T14:55:36;100993.53;;;12.91;39.69
44198;BME280;30157;55.512;37.764;2022-09-09T14:58:03;101014.41;;;12.94;39.85
44198;BME280;30157;55.512;37.764;2022-09-09T15:00:28;101011.78;;;12.91;39.94
44198;BME280;30157;55.512;37.764;2022-09-09T15:02:54;101010.91;;;12.87;40.22
44198;BME280;30157;55.512;37.764;2022-09-09T15:05:20;100920.28;;;12.21;40.35
44198;BME280;30157;55.512;37.764;2022-09-09T15:07:46;100950.75;;;12.41;40.65
44198;BME280;30157;55.512;37.764;2022-09-09T15:10:14;100997.78;;;12.66;40.48
44198;BME280;30157;55.512;37.764;2022-09-09T15:12:40;101001.22;;;12.66;40.71
44198;BME280;30157;55.512;37.764;2022-09-09T15:15:08;101006.44;;;12.65;40.87
44198;BME280;30157;55.512;37.764;2022-09-09T15:17:33;101002.94;;;12.58;40.94